sensor_id;sensor_type;location;lat;lon;timestamp;P1;durP1;ratioP1;P2;durP2;ratioP2
59105;SDS011;44891;50.204;8.132;2022-09-02T00:03:16;3.25;;;2.95;;
59105;SDS011;44891;50.204;8.132;2022-09-02T00:07:19;3.33;;;2.90;;
59105;SDS011;44891;50.204;8.132;2022-09-02T00:11:26;4.07;;;2.92;;
59105;SDS011;44891;50.204;8.132;2022-09-02T00:15:30;3.40;;;3.10;;
59105;SDS011;44891;50.204;8.132;2022-09-02T00:19:32;3.30;;;3.00;;
59105;SDS011;44891;50.204;8.132;2022-09-02T00:23:35;4.13;;;3.15;;
59105;SDS011;44891;50.204;8.132;2022-09-02T00:27:39;3.50;;;3.10;;
59105;SDS011;44891;50.204;8.132;2022-09-02T00:31:42;4.18;;;3.38;;
59105;SDS011;44891;50.204;8.132;2022-09-02T00:35:45;3.50;;;3.20;;
59105;SDS011;44891;50.204;8.132;2022-09-02T00:39:48;4.32;;;3.28;;
59105;SDS011;44891;50.204;8.132;2022-09-02T00:43:54;4.05;;;3.20;;
59105;SDS011;44891;50.204;8.132;2022-09-02T00:47:58;3.47;;;3.13;;
59105;SDS011;44891;50.204;8.132;2022-09-02T00:52:01;3.85;;;3.30;;
59105;SDS011;44891;50.204;8.132;2022-09-02T00:56:06;3.47;;;3.20;;
59105;SDS011;44891;50.204;8.132;2022-09-02T01:00:17;4.28;;;3.55;;
59105;SDS011;44891;50.204;8.132;2022-09-02T01:04:20;5.00;;;3.70;;
59105;SDS011;44891;50.204;8.132;2022-09-02T01:08:24;4.72;;;3.58;;
59105;SDS011;44891;50.204;8.132;2022-09-02T01:12:29;4.13;;;3.72;;
59105;SDS011;44891;50.204;8.132;2022-09-02T01:16:35;4.75;;;3.65;;
59105;SDS011;44891;50.204;8.132;2022-09-02T01:20:41;4.10;;;3.80;;
59105;SDS011;44891;50.204;8.132;2022-09-02T01:24:45;4.85;;;3.97;;
59105;SDS011;44891;50.204;8.132;2022-09-02T01:28:47;4.88;;;3.97;;
59105;SDS011;44891;50.204;8.132;2022-09-02T01:32:51;4.55;;;3.83;;
59105;SDS011;44891;50.204;8.132;2022-09-02T01:36:54;4.10;;;3.80;;
59105;SDS011;44891;50.204;8.132;2022-09-02T01:40:57;4.35;;;3.95;;
59105;SDS011;44891;50.204;8.132;2022-09-02T01:44:59;4.50;;;4.10;;
59105;SDS011;44891;50.204;8.132;2022-09-02T01:49:02;6.25;;;4.75;;
59105;SDS011;44891;50.204;8.132;2022-09-02T01:53:04;5.00;;;4.55;;
59105;SDS011;44891;50.204;8.132;2022-09-02T01:57:09;4.82;;;4.00;;
59105;SDS011;44891;50.204;8.132;2022-09-02T02:01:12;5.25;;;4.30;;
59105;SDS011;44891;50.204;8.132;2022-09-02T02:05:15;4.53;;;4.13;;
59105;SDS011;44891;50.204;8.132;2022-09-02T02:09:19;4.80;;;4.40;;
59105;SDS011;44891;50.204;8.132;2022-09-02T02:13:23;4.72;;;4.28;;
59105;SDS011;44891;50.204;8.132;2022-09-02T02:17:26;6.18;;;4.20;;
59105;SDS011;44891;50.204;8.132;2022-09-02T02:21:28;4.53;;;4.13;;
59105;SDS011;44891;50.204;8.132;2022-09-02T02:25:31;5.53;;;4.43;;
59105;SDS011;44891;50.204;8.132;2022-09-02T02:29:34;5.85;;;4.32;;
59105;SDS011;44891;50.204;8.132;2022-09-02T02:33:36;5.05;;;4.55;;
59105;SDS011;44891;50.204;8.132;2022-09-02T02:37:39;4.50;;;4.10;;
59105;SDS011;44891;50.204;8.132;2022-09-02T02:41:42;4.70;;;4.30;;
59105;SDS011;44891;50.204;8.132;2022-09-02T02:45:48;4.70;;;4.30;;
59105;SDS011;44891;50.204;8.132;2022-09-02T02:49:52;4.50;;;4.10;;
59105;SDS011;44891;50.204;8.132;2022-09-02T02:53:54;5.15;;;4.63;;
59105;SDS011;44891;50.204;8.132;2022-09-02T02:57:57;4.85;;;4.45;;
59105;SDS011;44891;50.204;8.132;2022-09-02T03:02:00;5.00;;;4.60;;
59105;SDS011;44891;50.204;8.132;2022-09-02T03:06:04;4.60;;;4.20;;
59105;SDS011;44891;50.204;8.132;2022-09-02T03:10:07;4.40;;;4.00;;
59105;SDS011;44891;50.204;8.132;2022-09-02T03:14:13;4.82;;;4.43;;
59105;SDS011;44891;50.204;8.132;2022-09-02T03:18:19;5.10;;;4.60;;
59105;SDS011;44891;50.204;8.132;2022-09-02T03:22:23;5.10;;;4.70;;
59105;SDS011;44891;50.204;8.132;2022-09-02T03:26:25;5.07;;;4.50;;
59105;SDS011;44891;50.204;8.132;2022-09-02T03:30:28;4.57;;;4.18;;
59105;SDS011;44891;50.204;8.132;2022-09-02T03:34:33;5.25;;;4.80;;
59105;SDS011;44891;50.204;8.132;2022-09-02T03:38:35;5.10;;;4.53;;
59105;SDS011;44891;50.204;8.132;2022-09-02T03:42:38;6.78;;;4.90;;
59105;SDS011;44891;50.204;8.132;2022-09-02T03:46:40;5.25;;;4.75;;
59105;SDS011;44891;50.204;8.132;2022-09-02T03:50:45;5.40;;;4.90;;
59105;SDS011;44891;50.204;8.132;2022-09-02T03:54:51;5.82;;;5.30;;
59105;SDS011;44891;50.204;8.132;2022-09-02T03:58:55;5.05;;;4.65;;
59105;SDS011;44891;50.204;8.132;2022-09-02T04:03:00;5.28;;;4.65;;
59105;SDS011;44891;50.204;8.132;2022-09-02T04:07:05;5.40;;;4.90;;
59105;SDS011;44891;50.204;8.132;2022-09-02T04:11:08;7.03;;;5.30;;
59105;SDS011;44891;50.204;8.132;2022-09-02T04:15:13;5.45;;;4.95;;
59105;SDS011;44891;50.204;8.132;2022-09-02T04:19:15;5.13;;;4.72;;
59105;SDS011;44891;50.204;8.132;2022-09-02T04:23:19;5.38;;;4.88;;
59105;SDS011;44891;50.204;8.132;2022-09-02T04:27:22;6.18;;;5.47;;
59105;SDS011;44891;50.204;8.132;2022-09-02T04:31:24;5.22;;;4.72;;
59105;SDS011;44891;50.204;8.132;2022-09-02T04:35:30;5.47;;;4.97;;
59105;SDS011;44891;50.204;8.132;2022-09-02T04:39:34;6.30;;;4.85;;
59105;SDS011;44891;50.204;8.132;2022-09-02T04:43:36;5.88;;;5.28;;
59105;SDS011;44891;50.204;8.132;2022-09-02T04:47:39;5.18;;;4.78;;
59105;SDS011;44891;50.204;8.132;2022-09-02T04:51:42;6.20;;;5.60;;
59105;SDS011;44891;50.204;8.132;2022-09-02T04:55:46;6.82;;;5.40;;
59105;SDS011;44891;50.204;8.132;2022-09-02T04:59:49;5.38;;;4.90;;
59105;SDS011;44891;50.204;8.132;2022-09-02T05:03:51;5.97;;;5.40;;
59105;SDS011;44891;50.204;8.132;2022-09-02T05:07:56;6.18;;;5.40;;
59105;SDS011;44891;50.204;8.132;2022-09-02T05:12:00;5.85;;;5.35;;
59105;SDS011;44891;50.204;8.132;2022-09-02T05:16:06;5.50;;;4.70;;
59105;SDS011;44891;50.204;8.132;2022-09-02T05:20:09;5.97;;;5.32;;
59105;SDS011;44891;50.204;8.132;2022-09-02T05:24:12;5.65;;;5.07;;
59105;SDS011;44891;50.204;8.132;2022-09-02T05:28:16;5.93;;;5.35;;
59105;SDS011;44891;50.204;8.132;2022-09-02T05:32:18;5.78;;;5.20;;
59105;SDS011;44891;50.204;8.132;2022-09-02T05:36:22;6.35;;;4.78;;
59105;SDS011;44891;50.204;8.132;2022-09-02T05:40:25;5.97;;;5.38;;
59105;SDS011;44891;50.204;8.132;2022-09-02T05:44:29;5.15;;;4.68;;
59105;SDS011;44891;50.204;8.132;2022-09-02T05:48:33;5.40;;;4.85;;
59105;SDS011;44891;50.204;8.132;2022-09-02T05:52:55;5.90;;;5.30;;
59105;SDS011;44891;50.204;8.132;2022-09-02T05:56:58;5.63;;;4.90;;
59105;SDS011;44891;50.204;8.132;2022-09-02T06:01:07;6.30;;;5.20;;
59105;SDS011;44891;50.204;8.132;2022-09-02T06:05:10;6.18;;;5.00;;
59105;SDS011;44891;50.204;8.132;2022-09-02T06:09:18;5.30;;;4.80;;
59105;SDS011;44891;50.204;8.132;2022-09-02T06:13:22;5.15;;;4.65;;
59105;SDS011;44891;50.204;8.132;2022-09-02T06:17:29;6.50;;;5.07;;
59105;SDS011;44891;50.204;8.132;2022-09-02T06:21:31;5.25;;;4.75;;
59105;SDS011;44891;50.204;8.132;2022-09-02T06:25:35;5.22;;;4.68;;
59105;SDS011;44891;50.204;8.132;2022-09-02T06:29:37;5.03;;;4.53;;
59105;SDS011;44891;50.204;8.132;2022-09-02T06:33:44;6.75;;;4.88;;
59105;SDS011;44891;50.204;8.132;2022-09-02T06:37:50;5.10;;;4.60;;
59105;SDS011;44891;50.204;8.132;2022-09-02T06:41:53;5.28;;;4.47;;
59105;SDS011;44891;50.204;8.132;2022-09-02T06:45:57;6.70;;;4.90;;
59105;SDS011;44891;50.204;8.132;2022-09-02T06:50:01;5.68;;;4.50;;
59105;SDS011;44891;50.204;8.132;2022-09-02T06:54:04;5.07;;;4.38;;
59105;SDS011;44891;50.204;8.132;2022-09-02T06:58:11;4.88;;;4.13;;
59105;SDS011;44891;50.204;8.132;2022-09-02T07:02:14;6.07;;;4.35;;
59105;SDS011;44891;50.204;8.132;2022-09-02T07:06:18;5.85;;;4.30;;
59105;SDS011;44891;50.204;8.132;2022-09-02T07:10:23;4.18;;;3.83;;
59105;SDS011;44891;50.204;8.132;2022-09-02T07:14:28;4.40;;;4.00;;
59105;SDS011;44891;50.204;8.132;2022-09-02T07:18:31;3.92;;;3.63;;
59105;SDS011;44891;50.204;8.132;2022-09-02T07:22:37;4.47;;;4.10;;
59105;SDS011;44891;50.204;8.132;2022-09-02T07:26:41;3.80;;;3.50;;
59105;SDS011;44891;50.204;8.132;2022-09-02T07:30:43;4.85;;;3.83;;
59105;SDS011;44891;50.204;8.132;2022-09-02T07:34:49;4.20;;;3.80;;
59105;SDS011;44891;50.204;8.132;2022-09-02T07:38:53;4.85;;;3.20;;
59105;SDS011;44891;50.204;8.132;2022-09-02T07:42:56;3.83;;;3.42;;
59105;SDS011;44891;50.204;8.132;2022-09-02T07:46:59;3.40;;;3.10;;
59105;SDS011;44891;50.204;8.132;2022-09-02T07:51:02;4.57;;;3.40;;
59105;SDS011;44891;50.204;8.132;2022-09-02T07:55:07;5.38;;;2.90;;
59105;SDS011;44891;50.204;8.132;2022-09-02T07:59:10;3.30;;;3.00;;
59105;SDS011;44891;50.204;8.132;2022-09-02T08:03:14;3.10;;;2.80;;
59105;SDS011;44891;50.204;8.132;2022-09-02T08:07:23;2.95;;;2.70;;
59105;SDS011;44891;50.204;8.132;2022-09-02T08:11:27;4.15;;;2.80;;
59105;SDS011;44891;50.204;8.132;2022-09-02T08:15:29;2.83;;;2.63;;
59105;SDS011;44891;50.204;8.132;2022-09-02T08:19:31;3.00;;;2.78;;
59105;SDS011;44891;50.204;8.132;2022-09-02T08:23:34;3.33;;;2.90;;
59105;SDS011;44891;50.204;8.132;2022-09-02T08:27:37;5.18;;;2.83;;
59105;SDS011;44891;50.204;8.132;2022-09-02T08:31:40;2.90;;;2.63;;
59105;SDS011;44891;50.204;8.132;2022-09-02T08:35:42;4.32;;;3.00;;
59105;SDS011;44891;50.204;8.132;2022-09-02T08:39:44;3.22;;;2.70;;
59105;SDS011;44891;50.204;8.132;2022-09-02T08:43:50;3.28;;;2.88;;
59105;SDS011;44891;50.204;8.132;2022-09-02T08:47:58;3.63;;;2.85;;
59105;SDS011;44891;50.204;8.132;2022-09-02T08:52:05;2.90;;;2.70;;
59105;SDS011;44891;50.204;8.132;2022-09-02T08:56:09;3.20;;;2.78;;
59105;SDS011;44891;50.204;8.132;2022-09-02T09:00:14;3.25;;;2.70;;
59105;SDS011;44891;50.204;8.132;2022-09-02T09:04:23;3.10;;;2.80;;
59105;SDS011;44891;50.204;8.132;2022-09-02T09:08:36;2.95;;;2.70;;
59105;SDS011;44891;50.204;8.132;2022-09-02T09:12:51;3.25;;;2.58;;
59105;SDS011;44891;50.204;8.132;2022-09-02T09:17:04;4.50;;;2.60;;
59105;SDS011;44891;50.204;8.132;2022-09-02T09:21:11;2.83;;;2.63;;
59105;SDS011;44891;50.204;8.132;2022-09-02T09:25:15;3.10;;;2.38;;
59105;SDS011;44891;50.204;8.132;2022-09-02T09:29:18;3.00;;;2.72;;
59105;SDS011;44891;50.204;8.132;2022-09-02T09:33:21;4.10;;;2.72;;
59105;SDS011;44891;50.204;8.132;2022-09-02T09:37:27;2.90;;;2.53;;
59105;SDS011;44891;50.204;8.132;2022-09-02T09:41:31;2.55;;;2.33;;
59105;SDS011;44891;50.204;8.132;2022-09-02T09:45:34;3.58;;;2.70;;
59105;SDS011;44891;50.204;8.132;2022-09-02T09:49:38;3.33;;;2.70;;
59105;SDS011;44891;50.204;8.132;2022-09-02T09:53:40;4.10;;;2.88;;
59105;SDS011;44891;50.204;8.132;2022-09-02T09:57:43;3.80;;;2.65;;
59105;SDS011;44891;50.204;8.132;2022-09-02T10:01:48;3.83;;;2.50;;
59105;SDS011;44891;50.204;8.132;2022-09-02T10:05:53;3.25;;;2.60;;
59105;SDS011;44891;50.204;8.132;2022-09-02T10:09:59;3.78;;;2.70;;
59105;SDS011;44891;50.204;8.132;2022-09-02T10:14:15;3.22;;;2.55;;
59105;SDS011;44891;50.204;8.132;2022-09-02T10:18:20;2.75;;;2.53;;
59105;SDS011;44891;50.204;8.132;2022-09-02T10:22:35;8.40;;;2.80;;
59105;SDS011;44891;50.204;8.132;2022-09-02T10:26:51;2.70;;;2.50;;
59105;SDS011;44891;50.204;8.132;2022-09-02T10:31:01;3.78;;;2.53;;
59105;SDS011;44891;50.204;8.132;2022-09-02T10:35:12;3.05;;;2.70;;
59105;SDS011;44891;50.204;8.132;2022-09-02T10:39:24;4.20;;;2.95;;
59105;SDS011;44891;50.204;8.132;2022-09-02T10:43:41;2.88;;;2.67;;
59105;SDS011;44891;50.204;8.132;2022-09-02T10:48:00;3.67;;;2.65;;
59105;SDS011;44891;50.204;8.132;2022-09-02T10:52:15;3.25;;;2.67;;
59105;SDS011;44891;50.204;8.132;2022-09-02T11:00:41;3.20;;;2.58;;
59105;SDS011;44891;50.204;8.132;2022-09-02T11:04:52;2.75;;;2.55;;
59105;SDS011;44891;50.204;8.132;2022-09-02T11:09:00;3.83;;;2.83;;
59105;SDS011;44891;50.204;8.132;2022-09-02T11:13:08;3.15;;;2.50;;
59105;SDS011;44891;50.204;8.132;2022-09-02T11:21:28;4.15;;;2.92;;
59105;SDS011;44891;50.204;8.132;2022-09-02T11:25:38;3.03;;;2.72;;
59105;SDS011;44891;50.204;8.132;2022-09-02T11:29:52;2.53;;;2.33;;
59105;SDS011;44891;50.204;8.132;2022-09-02T11:34:01;4.60;;;2.50;;
59105;SDS011;44891;50.204;8.132;2022-09-02T11:38:17;3.00;;;2.70;;
59105;SDS011;44891;50.204;8.132;2022-09-02T11:42:38;2.40;;;2.20;;
59105;SDS011;44891;50.204;8.132;2022-09-02T11:47:05;3.35;;;2.58;;
59105;SDS011;44891;50.204;8.132;2022-09-02T11:51:27;2.50;;;2.30;;
59105;SDS011;44891;50.204;8.132;2022-09-02T11:55:38;5.50;;;2.47;;
59105;SDS011;44891;50.204;8.132;2022-09-02T12:04:32;3.90;;;2.28;;
59105;SDS011;44891;50.204;8.132;2022-09-02T12:13:04;3.40;;;2.63;;
59105;SDS011;44891;50.204;8.132;2022-09-02T12:17:07;2.80;;;2.42;;
59105;SDS011;44891;50.204;8.132;2022-09-02T12:21:13;3.70;;;2.00;;
59105;SDS011;44891;50.204;8.132;2022-09-02T12:25:36;2.40;;;2.20;;
59105;SDS011;44891;50.204;8.132;2022-09-02T12:29:42;3.35;;;2.20;;
59105;SDS011;44891;50.204;8.132;2022-09-02T12:33:45;2.15;;;1.95;;
59105;SDS011;44891;50.204;8.132;2022-09-02T12:37:53;4.78;;;2.47;;
59105;SDS011;44891;50.204;8.132;2022-09-02T12:41:57;5.13;;;2.20;;
59105;SDS011;44891;50.204;8.132;2022-09-02T12:46:06;3.20;;;2.10;;
59105;SDS011;44891;50.204;8.132;2022-09-02T12:50:22;4.25;;;2.10;;
59105;SDS011;44891;50.204;8.132;2022-09-02T12:54:33;3.60;;;2.10;;
59105;SDS011;44891;50.204;8.132;2022-09-02T12:58:44;3.47;;;2.10;;
59105;SDS011;44891;50.204;8.132;2022-09-02T13:02:51;3.00;;;2.17;;
59105;SDS011;44891;50.204;8.132;2022-09-02T13:07:19;4.20;;;2.30;;
59105;SDS011;44891;50.204;8.132;2022-09-02T13:11:44;2.38;;;2.17;;
59105;SDS011;44891;50.204;8.132;2022-09-02T13:16:11;2.85;;;2.20;;
59105;SDS011;44891;50.204;8.132;2022-09-02T13:20:29;2.65;;;2.08;;
59105;SDS011;44891;50.204;8.132;2022-09-02T13:24:47;2.60;;;2.10;;
59105;SDS011;44891;50.204;8.132;2022-09-02T13:29:09;3.08;;;2.00;;
59105;SDS011;44891;50.204;8.132;2022-09-02T13:33:27;3.45;;;2.10;;
59105;SDS011;44891;50.204;8.132;2022-09-02T13:37:31;2.78;;;1.95;;
59105;SDS011;44891;50.204;8.132;2022-09-02T13:41:34;2.92;;;2.05;;
59105;SDS011;44891;50.204;8.132;2022-09-02T13:45:38;2.63;;;2.10;;
59105;SDS011;44891;50.204;8.132;2022-09-02T13:49:41;2.20;;;1.80;;
59105;SDS011;44891;50.204;8.132;2022-09-02T13:53:46;4.05;;;1.98;;
59105;SDS011;44891;50.204;8.132;2022-09-02T13:57:53;4.50;;;1.95;;
59105;SDS011;44891;50.204;8.132;2022-09-02T14:01:59;2.10;;;1.80;;
59105;SDS011;44891;50.204;8.132;2022-09-02T14:06:19;2.67;;;1.63;;
59105;SDS011;44891;50.204;8.132;2022-09-02T14:10:24;1.90;;;1.73;;
59105;SDS011;44891;50.204;8.132;2022-09-02T14:14:28;2.28;;;1.60;;
59105;SDS011;44891;50.204;8.132;2022-09-02T14:18:32;1.63;;;1.52;;
59105;SDS011;44891;50.204;8.132;2022-09-02T14:22:35;3.03;;;1.67;;
59105;SDS011;44891;50.204;8.132;2022-09-02T14:26:40;1.67;;;1.50;;
59105;SDS011;44891;50.204;8.132;2022-09-02T14:30:52;3.08;;;1.55;;
59105;SDS011;44891;50.204;8.132;2022-09-02T14:39:22;4.07;;;1.52;;
59105;SDS011;44891;50.204;8.132;2022-09-02T14:43:24;2.63;;;1.77;;
59105;SDS011;44891;50.204;8.132;2022-09-02T14:47:27;4.13;;;1.80;;
59105;SDS011;44891;50.204;8.132;2022-09-02T14:51:32;1.65;;;1.55;;
59105;SDS011;44891;50.204;8.132;2022-09-02T14:55:39;1.70;;;1.55;;
59105;SDS011;44891;50.204;8.132;2022-09-02T14:59:45;5.65;;;1.73;;
59105;SDS011;44891;50.204;8.132;2022-09-02T15:03:47;2.85;;;1.50;;
59105;SDS011;44891;50.204;8.132;2022-09-02T15:07:51;2.03;;;1.40;;
59105;SDS011;44891;50.204;8.132;2022-09-02T15:11:53;2.85;;;2.10;;
59105;SDS011;44891;50.204;8.132;2022-09-02T15:15:55;1.73;;;1.50;;
59105;SDS011;44891;50.204;8.132;2022-09-02T15:19:57;3.38;;;1.30;;
59105;SDS011;44891;50.204;8.132;2022-09-02T15:24:01;2.45;;;1.40;;
59105;SDS011;44891;50.204;8.132;2022-09-02T15:28:03;1.98;;;1.40;;
59105;SDS011;44891;50.204;8.132;2022-09-02T15:32:06;2.13;;;1.40;;
59105;SDS011;44891;50.204;8.132;2022-09-02T15:36:08;2.33;;;1.60;;
59105;SDS011;44891;50.204;8.132;2022-09-02T15:40:14;3.25;;;1.30;;
59105;SDS011;44891;50.204;8.132;2022-09-02T15:44:16;1.50;;;1.40;;
59105;SDS011;44891;50.204;8.132;2022-09-02T15:48:18;1.70;;;1.33;;
59105;SDS011;44891;50.204;8.132;2022-09-02T15:52:20;4.03;;;1.60;;
59105;SDS011;44891;50.204;8.132;2022-09-02T15:56:24;3.00;;;1.70;;
59105;SDS011;44891;50.204;8.132;2022-09-02T16:00:28;2.78;;;1.67;;
59105;SDS011;44891;50.204;8.132;2022-09-02T16:04:31;2.60;;;1.75;;
59105;SDS011;44891;50.204;8.132;2022-09-02T16:08:33;2.22;;;1.90;;
59105;SDS011;44891;50.204;8.132;2022-09-02T16:12:37;2.25;;;1.80;;
59105;SDS011;44891;50.204;8.132;2022-09-02T16:16:39;1.90;;;1.70;;
59105;SDS011;44891;50.204;8.132;2022-09-02T16:20:42;3.15;;;1.90;;
59105;SDS011;44891;50.204;8.132;2022-09-02T16:24:44;2.75;;;1.80;;
59105;SDS011;44891;50.204;8.132;2022-09-02T16:28:47;2.20;;;2.00;;
59105;SDS011;44891;50.204;8.132;2022-09-02T16:32:50;2.10;;;1.90;;
59105;SDS011;44891;50.204;8.132;2022-09-02T16:36:52;3.17;;;2.10;;
59105;SDS011;44891;50.204;8.132;2022-09-02T16:40:55;3.55;;;1.90;;
59105;SDS011;44891;50.204;8.132;2022-09-02T16:44:59;2.53;;;1.90;;
59105;SDS011;44891;50.204;8.132;2022-09-02T16:49:02;3.20;;;1.90;;
59105;SDS011;44891;50.204;8.132;2022-09-02T16:53:04;7.63;;;5.38;;
59105;SDS011;44891;50.204;8.132;2022-09-02T16:57:07;19.35;;;10.77;;
59105;SDS011;44891;50.204;8.132;2022-09-02T17:01:11;13.27;;;9.38;;
59105;SDS011;44891;50.204;8.132;2022-09-02T17:05:13;6.07;;;1.95;;
59105;SDS011;44891;50.204;8.132;2022-09-02T17:09:17;3.65;;;3.13;;
59105;SDS011;44891;50.204;8.132;2022-09-02T17:13:19;10.75;;;3.40;;
59105;SDS011;44891;50.204;8.132;2022-09-02T17:17:22;2.20;;;1.65;;
59105;SDS011;44891;50.204;8.132;2022-09-02T17:21:25;14.20;;;2.25;;
59105;SDS011;44891;50.204;8.132;2022-09-02T17:25:29;5.00;;;2.08;;
59105;SDS011;44891;50.204;8.132;2022-09-02T17:29:32;14.30;;;2.88;;
59105;SDS011;44891;50.204;8.132;2022-09-02T17:33:35;6.70;;;2.92;;
59105;SDS011;44891;50.204;8.132;2022-09-02T17:37:37;10.15;;;3.70;;
59105;SDS011;44891;50.204;8.132;2022-09-02T17:41:40;11.40;;;5.50;;
59105;SDS011;44891;50.204;8.132;2022-09-02T17:46:03;3.20;;;2.40;;
59105;SDS011;44891;50.204;8.132;2022-09-02T17:50:07;4.60;;;2.78;;
59105;SDS011;44891;50.204;8.132;2022-09-02T17:54:10;4.70;;;2.90;;
59105;SDS011;44891;50.204;8.132;2022-09-02T17:58:13;3.15;;;2.45;;
59105;SDS011;44891;50.204;8.132;2022-09-02T18:06:45;2.97;;;1.90;;
59105;SDS011;44891;50.204;8.132;2022-09-02T18:10:51;2.03;;;1.70;;
59105;SDS011;44891;50.204;8.132;2022-09-02T18:14:56;3.83;;;2.00;;
59105;SDS011;44891;50.204;8.132;2022-09-02T18:19:10;2.47;;;2.20;;
59105;SDS011;44891;50.204;8.132;2022-09-02T18:23:23;3.65;;;2.22;;
59105;SDS011;44891;50.204;8.132;2022-09-02T18:27:46;3.40;;;2.03;;
59105;SDS011;44891;50.204;8.132;2022-09-02T18:31:58;2.72;;;2.15;;
59105;SDS011;44891;50.204;8.132;2022-09-02T18:36:12;4.45;;;2.65;;
59105;SDS011;44891;50.204;8.132;2022-09-02T18:40:26;3.75;;;2.03;;
59105;SDS011;44891;50.204;8.132;2022-09-02T18:44:34;2.60;;;2.00;;
59105;SDS011;44891;50.204;8.132;2022-09-02T18:48:43;2.55;;;2.05;;
59105;SDS011;44891;50.204;8.132;2022-09-02T18:52:50;4.10;;;2.20;;
59105;SDS011;44891;50.204;8.132;2022-09-02T18:56:55;4.93;;;2.22;;
59105;SDS011;44891;50.204;8.132;2022-09-02T19:01:02;2.63;;;2.13;;
59105;SDS011;44891;50.204;8.132;2022-09-02T19:05:09;3.95;;;2.00;;
59105;SDS011;44891;50.204;8.132;2022-09-02T19:09:13;2.10;;;1.75;;
59105;SDS011;44891;50.204;8.132;2022-09-02T19:13:18;2.58;;;2.03;;
59105;SDS011;44891;50.204;8.132;2022-09-02T19:17:21;2.35;;;2.15;;
59105;SDS011;44891;50.204;8.132;2022-09-02T19:21:23;3.88;;;2.00;;
59105;SDS011;44891;50.204;8.132;2022-09-02T19:25:32;3.40;;;2.10;;
59105;SDS011;44891;50.204;8.132;2022-09-02T19:29:40;4.18;;;2.00;;
59105;SDS011;44891;50.204;8.132;2022-09-02T19:33:44;3.17;;;1.85;;
59105;SDS011;44891;50.204;8.132;2022-09-02T19:37:54;3.53;;;2.13;;
59105;SDS011;44891;50.204;8.132;2022-09-02T19:41:56;2.50;;;2.22;;
59105;SDS011;44891;50.204;8.132;2022-09-02T19:46:00;3.70;;;2.10;;
59105;SDS011;44891;50.204;8.132;2022-09-02T19:50:03;2.97;;;2.17;;
59105;SDS011;44891;50.204;8.132;2022-09-02T19:54:05;2.67;;;1.88;;
59105;SDS011;44891;50.204;8.132;2022-09-02T19:58:08;2.22;;;2.03;;
59105;SDS011;44891;50.204;8.132;2022-09-02T20:02:11;2.90;;;2.10;;
59105;SDS011;44891;50.204;8.132;2022-09-02T20:06:14;2.53;;;2.30;;
59105;SDS011;44891;50.204;8.132;2022-09-02T20:10:17;3.17;;;2.30;;
59105;SDS011;44891;50.204;8.132;2022-09-02T20:14:19;2.30;;;2.20;;
59105;SDS011;44891;50.204;8.132;2022-09-02T20:18:23;2.35;;;2.15;;
59105;SDS011;44891;50.204;8.132;2022-09-02T20:22:27;2.85;;;2.35;;
59105;SDS011;44891;50.204;8.132;2022-09-02T20:26:32;3.15;;;2.60;;
59105;SDS011;44891;50.204;8.132;2022-09-02T20:30:41;2.35;;;2.15;;
59105;SDS011;44891;50.204;8.132;2022-09-02T20:34:52;4.25;;;2.50;;
59105;SDS011;44891;50.204;8.132;2022-09-02T20:39:07;4.05;;;2.30;;
59105;SDS011;44891;50.204;8.132;2022-09-02T20:43:30;3.58;;;2.20;;
59105;SDS011;44891;50.204;8.132;2022-09-02T20:47:45;2.75;;;2.45;;
59105;SDS011;44891;50.204;8.132;2022-09-02T20:51:59;3.47;;;2.50;;
59105;SDS011;44891;50.204;8.132;2022-09-02T20:56:09;2.95;;;2.40;;
59105;SDS011;44891;50.204;8.132;2022-09-02T21:04:25;2.80;;;2.50;;
59105;SDS011;44891;50.204;8.132;2022-09-02T21:08:33;2.58;;;2.35;;
59105;SDS011;44891;50.204;8.132;2022-09-02T21:12:47;4.00;;;2.30;;
59105;SDS011;44891;50.204;8.132;2022-09-02T21:16:56;3.63;;;2.35;;
59105;SDS011;44891;50.204;8.132;2022-09-02T21:21:02;2.65;;;2.10;;
59105;SDS011;44891;50.204;8.132;2022-09-02T21:25:14;3.25;;;2.45;;
59105;SDS011;44891;50.204;8.132;2022-09-02T21:29:21;3.53;;;2.85;;
59105;SDS011;44891;50.204;8.132;2022-09-02T21:33:28;3.38;;;2.20;;
59105;SDS011;44891;50.204;8.132;2022-09-02T21:37:34;2.40;;;2.20;;
59105;SDS011;44891;50.204;8.132;2022-09-02T21:41:41;2.42;;;2.00;;
59105;SDS011;44891;50.204;8.132;2022-09-02T21:45:52;4.93;;;2.10;;
59105;SDS011;44891;50.204;8.132;2022-09-02T21:50:09;3.53;;;2.28;;
59105;SDS011;44891;50.204;8.132;2022-09-02T21:54:24;2.83;;;1.85;;
59105;SDS011;44891;50.204;8.132;2022-09-02T21:58:43;2.42;;;1.85;;
59105;SDS011;44891;50.204;8.132;2022-09-02T22:02:59;1.70;;;1.60;;
59105;SDS011;44891;50.204;8.132;2022-09-02T22:07:04;2.85;;;1.88;;
59105;SDS011;44891;50.204;8.132;2022-09-02T22:11:19;2.22;;;2.08;;
59105;SDS011;44891;50.204;8.132;2022-09-02T22:15:36;2.20;;;2.00;;
59105;SDS011;44891;50.204;8.132;2022-09-02T22:19:56;2.22;;;1.83;;
59105;SDS011;44891;50.204;8.132;2022-09-02T22:24:02;2.70;;;1.80;;
59105;SDS011;44891;50.204;8.132;2022-09-02T22:28:05;2.90;;;1.90;;
59105;SDS011;44891;50.204;8.132;2022-09-02T22:32:14;2.05;;;1.80;;
59105;SDS011;44891;50.204;8.132;2022-09-02T22:36:22;2.08;;;1.88;;
59105;SDS011;44891;50.204;8.132;2022-09-02T22:40:37;2.33;;;1.52;;
59105;SDS011;44891;50.204;8.132;2022-09-02T22:44:44;1.95;;;1.85;;
59105;SDS011;44891;50.204;8.132;2022-09-02T22:49:09;1.95;;;1.77;;
59105;SDS011;44891;50.204;8.132;2022-09-02T22:53:33;2.38;;;1.90;;
59105;SDS011;44891;50.204;8.132;2022-09-02T22:57:37;2.50;;;1.88;;
59105;SDS011;44891;50.204;8.132;2022-09-02T23:01:49;1.80;;;1.70;;
59105;SDS011;44891;50.204;8.132;2022-09-02T23:06:01;2.03;;;1.90;;
59105;SDS011;44891;50.204;8.132;2022-09-02T23:10:16;1.90;;;1.65;;
59105;SDS011;44891;50.204;8.132;2022-09-02T23:14:26;2.58;;;1.77;;
59105;SDS011;44891;50.204;8.132;2022-09-02T23:18:36;2.23;;;1.70;;
59105;SDS011;44891;50.204;8.132;2022-09-02T23:23:02;1.70;;;1.60;;
59105;SDS011;44891;50.204;8.132;2022-09-02T23:27:18;2.47;;;2.10;;
59105;SDS011;44891;50.204;8.132;2022-09-02T23:31:28;2.50;;;1.75;;
59105;SDS011;44891;50.204;8.132;2022-09-02T23:35:41;2.05;;;1.85;;
59105;SDS011;44891;50.204;8.132;2022-09-02T23:39:52;1.85;;;1.70;;
59105;SDS011;44891;50.204;8.132;2022-09-02T23:44:03;1.88;;;1.77;;
59105;SDS011;44891;50.204;8.132;2022-09-02T23:48:15;2.00;;;1.80;;
59105;SDS011;44891;50.204;8.132;2022-09-02T23:52:28;3.08;;;2.08;;
59105;SDS011;44891;50.204;8.132;2022-09-02T23:56:44;2.58;;;2.38;;
